createdAt,value
2022-09-27T00:01:34.759Z,2.85
2022-09-27T00:04:36.197Z,2.28
2022-09-27T00:07:37.679Z,5.10
2022-09-27T00:10:39.189Z,3.67
2022-09-27T00:13:40.785Z,3.57
2022-09-27T00:16:43.627Z,4.15
2022-09-27T00:19:45.023Z,2.75
2022-09-27T00:22:48.109Z,3.60
2022-09-27T00:25:59.209Z,3.67
2022-09-27T00:29:00.612Z,3.08
2022-09-27T00:32:02.214Z,3.45
2022-09-27T00:35:03.937Z,3.20
2022-09-27T00:38:06.116Z,3.72
2022-09-27T00:41:13.345Z,4.25
2022-09-27T00:44:27.099Z,3.30
2022-09-27T00:47:43.893Z,2.88
2022-09-27T00:50:50.490Z,5.95
2022-09-27T00:53:54.540Z,5.38
2022-09-27T00:56:56.749Z,5.57
2022-09-27T01:03:07.167Z,3.03
2022-09-27T01:06:10.233Z,4.88
2022-09-27T01:09:12.477Z,3.33
2022-09-27T01:12:29.301Z,3.33
2022-09-27T01:15:48.278Z,4.05
2022-09-27T01:19:27.343Z,3.70
2022-09-27T01:22:55.099Z,4.82
2022-09-27T01:26:12.128Z,3.35
2022-09-27T01:29:34.534Z,3.63
2022-09-27T01:32:52.148Z,4.28
2022-09-27T01:36:17.708Z,3.28
2022-09-27T01:39:32.530Z,3.28
2022-09-27T01:43:21.761Z,3.08
2022-09-27T01:46:29.952Z,3.13
2022-09-27T01:50:04.330Z,4.45
2022-09-27T01:53:23.560Z,3.90
2022-09-27T01:56:54.672Z,6.18
2022-09-27T02:00:05.386Z,2.83
2022-09-27T02:03:26.036Z,4.10
2022-09-27T02:07:01.034Z,2.53
2022-09-27T02:10:11.358Z,3.00
2022-09-27T02:13:26.188Z,3.33
2022-09-27T02:16:53.591Z,2.90
2022-09-27T02:20:15.579Z,2.47
2022-09-27T02:23:33.199Z,4.20
2022-09-27T02:26:45.127Z,3.00
2022-09-27T02:29:54.698Z,3.20
2022-09-27T02:32:56.298Z,7.05
2022-09-27T02:35:59.031Z,7.25
2022-09-27T02:39:01.221Z,5.65
2022-09-27T02:42:05.593Z,4.15
2022-09-27T02:45:08.871Z,5.95
2022-09-27T02:48:16.999Z,3.40
2022-09-27T02:51:27.087Z,3.72
2022-09-27T02:55:08.219Z,4.60
2022-09-27T02:58:35.632Z,3.50
2022-09-27T03:02:24.040Z,4.05
2022-09-27T03:06:10.722Z,2.65
2022-09-27T03:09:28.228Z,5.65
2022-09-27T03:12:29.917Z,7.05
2022-09-27T03:15:32.430Z,6.22
2022-09-27T03:18:36.700Z,5.15
2022-09-27T03:22:08.831Z,4.15
2022-09-27T03:25:11.599Z,6.72
2022-09-27T03:28:13.743Z,5.30
2022-09-27T03:31:16.975Z,7.65
2022-09-27T03:34:39.192Z,7.63
2022-09-27T03:37:41.065Z,6.03
2022-09-27T03:40:42.816Z,8.80
2022-09-27T03:46:46.920Z,9.20
2022-09-27T03:49:48.611Z,17.40
2022-09-27T03:52:50.058Z,6.78
2022-09-27T03:55:51.498Z,5.63
2022-09-27T03:58:53.034Z,11.47
2022-09-27T04:01:56.209Z,10.73
2022-09-27T04:05:17.700Z,6.47
2022-09-27T04:08:19.716Z,3.90
2022-09-27T04:11:23.703Z,5.97
2022-09-27T04:14:25.153Z,7.68
2022-09-27T04:17:47.100Z,5.28
2022-09-27T04:21:00.430Z,7.88
2022-09-27T04:24:02.277Z,4.45
2022-09-27T04:27:04.065Z,5.18
2022-09-27T04:30:07.017Z,5.82
2022-09-27T04:33:37.081Z,8.70
2022-09-27T04:36:46.101Z,5.72
2022-09-27T04:39:51.133Z,6.35
2022-09-27T04:42:52.549Z,7.00
2022-09-27T04:45:54.227Z,3.42
2022-09-27T04:48:55.780Z,4.13
2022-09-27T04:51:57.635Z,6.57
2022-09-27T04:54:59.045Z,15.38
2022-09-27T04:58:01.540Z,4.57
2022-09-27T05:01:04.253Z,2.85
2022-09-27T05:04:40.588Z,3.65
2022-09-27T05:07:43.668Z,3.00
2022-09-27T05:10:51.333Z,3.17
2022-09-27T05:13:52.784Z,2.77
2022-09-27T05:16:55.356Z,3.00
2022-09-27T05:20:19.460Z,4.05
2022-09-27T05:23:28.014Z,2.95
2022-09-27T05:26:29.510Z,4.80
2022-09-27T05:29:30.989Z,4.23
2022-09-27T05:32:50.162Z,4.72
2022-09-27T05:36:02.158Z,6.85
2022-09-27T05:39:05.389Z,3.17
2022-09-27T05:42:10.163Z,4.80
2022-09-27T05:45:12.217Z,3.22
2022-09-27T05:48:14.553Z,1.93
2022-09-27T05:51:34.229Z,3.20
2022-09-27T05:54:35.891Z,5.07
2022-09-27T05:57:37.291Z,5.50
2022-09-27T06:00:43.397Z,4.35
2022-09-27T06:04:05.678Z,3.30
2022-09-27T06:07:42.348Z,5.53
2022-09-27T06:11:04.373Z,4.72
2022-09-27T06:14:06.503Z,4.68
2022-09-27T06:17:15.756Z,6.40
2022-09-27T06:20:20.664Z,8.90
2022-09-27T06:23:23.732Z,5.13
2022-09-27T06:26:29.625Z,6.00
2022-09-27T06:29:46.196Z,8.02
2022-09-27T06:33:02.879Z,6.70
2022-09-27T06:36:12.105Z,4.47
2022-09-27T06:39:15.684Z,5.32
2022-09-27T06:42:29.297Z,5.65
2022-09-27T06:45:39.551Z,6.00
2022-09-27T06:48:59.925Z,6.90
2022-09-27T06:52:01.730Z,6.82
2022-09-27T06:55:04.945Z,4.15
2022-09-27T06:58:29.876Z,5.32
2022-09-27T07:01:52.467Z,4.22
2022-09-27T07:05:18.090Z,5.50
2022-09-27T07:08:28.710Z,7.90
2022-09-27T07:11:30.537Z,5.43
2022-09-27T07:14:33.898Z,5.37
2022-09-27T07:17:37.321Z,5.32
2022-09-27T07:20:39.951Z,6.20
2022-09-27T07:23:41.785Z,7.18
2022-09-27T07:26:45.169Z,6.60
2022-09-27T07:29:48.493Z,7.78
2022-09-27T07:32:50.505Z,11.00
2022-09-27T07:35:51.976Z,5.90
2022-09-27T07:38:53.893Z,5.90
2022-09-27T07:44:57.622Z,7.60
2022-09-27T07:48:19.465Z,5.03
2022-09-27T07:51:34.017Z,6.20
2022-09-27T07:54:42.034Z,6.22
2022-09-27T07:58:10.423Z,6.38
2022-09-27T08:01:12.395Z,5.15
2022-09-27T08:04:13.897Z,7.03
2022-09-27T08:07:16.461Z,5.00
2022-09-27T08:10:21.792Z,5.55
2022-09-27T08:13:23.305Z,4.68
2022-09-27T08:16:27.768Z,9.07
2022-09-27T08:19:56.515Z,6.25
2022-09-27T08:23:30.937Z,5.88
2022-09-27T08:26:55.471Z,6.38
2022-09-27T08:30:16.916Z,3.95
2022-09-27T08:33:19.677Z,5.65
2022-09-27T08:36:22.185Z,6.18
2022-09-27T08:39:23.669Z,4.72
2022-09-27T08:43:06.544Z,7.93
2022-09-27T08:46:27.378Z,5.85
2022-09-27T08:49:36.319Z,6.75
2022-09-27T08:52:45.503Z,6.90
2022-09-27T08:55:55.733Z,7.28
2022-09-27T08:59:15.349Z,5.75
2022-09-27T09:02:24.712Z,9.25
2022-09-27T09:05:31.438Z,6.65
2022-09-27T09:08:51.875Z,6.38
2022-09-27T09:12:22.360Z,8.35
2022-09-27T09:15:55.679Z,4.85
2022-09-27T09:19:33.079Z,4.35
2022-09-27T09:23:06.538Z,5.55
2022-09-27T09:26:26.711Z,4.75
2022-09-27T09:29:41.895Z,6.63
2022-09-27T09:33:26.624Z,9.55
2022-09-27T09:36:43.035Z,5.85
2022-09-27T09:39:54.071Z,5.70
2022-09-27T09:42:59.150Z,5.20
2022-09-27T09:46:20.918Z,4.45
2022-09-27T09:49:34.965Z,4.78
2022-09-27T09:52:44.376Z,7.60
2022-09-27T09:55:56.229Z,5.05
2022-09-27T09:59:02.710Z,4.65
2022-09-27T10:02:18.570Z,6.25
2022-09-27T10:05:23.683Z,5.07
2022-09-27T10:08:35.344Z,4.70
2022-09-27T10:11:56.750Z,5.53
2022-09-27T10:15:05.544Z,5.47
2022-09-27T10:18:15.234Z,6.07
2022-09-27T10:21:28.440Z,4.97
2022-09-27T10:24:58.148Z,5.30
2022-09-27T10:28:51.335Z,5.10
2022-09-27T10:32:02.123Z,3.95
2022-09-27T10:35:35.412Z,4.53
2022-09-27T10:38:38.528Z,4.68
2022-09-27T10:41:49.501Z,5.90
2022-09-27T10:45:33.115Z,3.13
2022-09-27T10:48:42.949Z,3.25
2022-09-27T10:51:47.096Z,4.45
2022-09-27T10:54:57.429Z,1.92
2022-09-27T10:57:59.957Z,3.53
2022-09-27T11:01:05.810Z,5.93
2022-09-27T11:04:35.997Z,3.25
2022-09-27T11:07:38.621Z,4.07
2022-09-27T11:11:01.380Z,4.55
2022-09-27T11:14:07.913Z,2.90
2022-09-27T11:17:24.954Z,6.38
2022-09-27T11:20:39.103Z,3.28
2022-09-27T11:23:54.076Z,4.38
2022-09-27T11:27:33.445Z,3.40
2022-09-27T11:30:56.770Z,3.35
2022-09-27T11:34:28.915Z,3.15
2022-09-27T11:38:08.049Z,5.40
2022-09-27T11:41:48.181Z,2.53
2022-09-27T11:45:41.269Z,5.95
2022-09-27T11:49:00.108Z,5.22
2022-09-27T11:52:23.615Z,3.58
2022-09-27T11:55:41.545Z,5.43
2022-09-27T11:59:02.039Z,4.00
2022-09-27T12:02:41.393Z,4.97
2022-09-27T12:05:58.798Z,3.75
2022-09-27T12:09:08.980Z,2.60
2022-09-27T12:12:28.073Z,4.85
2022-09-27T12:15:35.787Z,2.53
2022-09-27T12:18:40.927Z,3.65
2022-09-27T12:22:04.026Z,3.78
2022-09-27T12:25:07.061Z,3.08
2022-09-27T12:28:36.863Z,2.00
2022-09-27T12:32:18.029Z,1.98
2022-09-27T12:35:29.267Z,1.55
2022-09-27T12:38:42.885Z,1.92
2022-09-27T12:41:56.437Z,1.40
2022-09-27T12:45:12.393Z,1.70
2022-09-27T12:48:38.581Z,2.80
2022-09-27T12:51:48.807Z,1.50
2022-09-27T12:55:08.753Z,1.00
2022-09-27T12:58:22.805Z,1.85
2022-09-27T13:01:37.089Z,2.08
2022-09-27T13:05:16.346Z,3.90
2022-09-27T13:08:40.251Z,2.85
2022-09-27T13:12:01.645Z,9.35
2022-09-27T13:15:19.141Z,2.25
2022-09-27T13:18:31.250Z,5.07
2022-09-27T13:21:51.522Z,3.05
2022-09-27T13:25:49.630Z,3.63
2022-09-27T13:29:02.147Z,2.30
2022-09-27T13:32:28.254Z,3.67
2022-09-27T13:35:38.746Z,2.10
2022-09-27T13:39:11.872Z,2.08
2022-09-27T13:43:10.750Z,2.13
2022-09-27T13:46:24.703Z,3.42
2022-09-27T13:49:38.344Z,3.03
2022-09-27T13:52:54.335Z,2.45
2022-09-27T13:55:59.493Z,2.30
2022-09-27T13:59:12.049Z,2.88
2022-09-27T14:02:29.356Z,6.35
2022-09-27T14:05:36.347Z,4.20
2022-09-27T14:08:45.579Z,3.95
2022-09-27T14:11:58.314Z,2.55
2022-09-27T14:15:02.678Z,3.58
2022-09-27T14:18:06.517Z,3.25
2022-09-27T14:21:31.735Z,2.65
2022-09-27T14:24:56.394Z,2.05
2022-09-27T14:28:30.564Z,3.67
2022-09-27T14:32:12.030Z,3.40
2022-09-27T14:35:51.686Z,2.88
2022-09-27T14:38:53.879Z,4.00
2022-09-27T14:42:02.534Z,4.28
2022-09-27T14:45:21.117Z,4.70
2022-09-27T14:48:32.121Z,3.63
2022-09-27T14:51:34.472Z,4.10
2022-09-27T14:54:35.872Z,3.42
2022-09-27T14:57:39.970Z,4.10
2022-09-27T15:00:46.740Z,4.03
2022-09-27T15:03:49.134Z,4.43
2022-09-27T15:06:51.456Z,6.40
2022-09-27T15:12:59.810Z,4.65
2022-09-27T15:16:01.683Z,5.18
2022-09-27T15:19:13.766Z,8.90
2022-09-27T15:22:43.406Z,4.88
2022-09-27T15:26:02.961Z,5.03
2022-09-27T15:29:04.763Z,4.15
2022-09-27T15:32:08.611Z,5.32
2022-09-27T15:35:10.691Z,4.38
2022-09-27T15:38:27.866Z,5.15
2022-09-27T15:42:02.979Z,3.30
2022-09-27T15:45:31.252Z,5.30
2022-09-27T15:48:37.370Z,4.32
2022-09-27T15:51:43.377Z,7.20
2022-09-27T15:54:44.790Z,7.93
2022-09-27T15:58:03.636Z,4.77
2022-09-27T16:01:05.628Z,6.20
2022-09-27T16:04:09.229Z,6.80
2022-09-27T16:07:11.881Z,7.68
2022-09-27T16:10:19.176Z,5.47
2022-09-27T16:13:21.333Z,5.45
2022-09-27T16:16:23.015Z,7.40
2022-09-27T16:19:24.518Z,6.00
2022-09-27T16:22:25.910Z,6.87
2022-09-27T16:25:28.668Z,21.60
2022-09-27T16:28:30.080Z,43.50
2022-09-27T16:31:31.501Z,51.20
2022-09-27T16:34:33.344Z,16.53
2022-09-27T16:37:35.387Z,11.35
2022-09-27T16:40:37.656Z,5.57
2022-09-27T16:46:47.732Z,7.78
2022-09-27T16:50:07.761Z,7.88
2022-09-27T16:53:09.299Z,11.25
2022-09-27T16:56:11.829Z,8.35
2022-09-27T16:59:13.973Z,5.68
2022-09-27T17:02:15.429Z,7.68
2022-09-27T17:05:19.445Z,6.00
2022-09-27T17:08:20.873Z,13.32
2022-09-27T17:11:23.083Z,10.77
2022-09-27T17:14:24.539Z,6.00
2022-09-27T17:17:26.131Z,8.70
2022-09-27T17:20:27.524Z,5.43
2022-09-27T17:23:30.662Z,5.70
2022-09-27T17:26:32.128Z,5.00
2022-09-27T17:29:33.750Z,6.13
2022-09-27T17:32:35.189Z,6.60
2022-09-27T17:35:38.060Z,7.90
2022-09-27T17:38:40.474Z,8.73
2022-09-27T17:41:42.304Z,9.18
2022-09-27T17:44:43.733Z,9.00
2022-09-27T17:48:03.939Z,8.00
2022-09-27T17:51:05.438Z,8.15
2022-09-27T17:54:09.375Z,7.90
2022-09-27T17:57:10.804Z,9.80
2022-09-27T18:00:12.523Z,7.73
2022-09-27T18:03:16.917Z,8.90
2022-09-27T18:06:18.345Z,7.90
2022-09-27T18:09:20.111Z,9.30
2022-09-27T18:12:21.697Z,7.90
2022-09-27T18:15:23.125Z,11.63
2022-09-27T18:18:27.775Z,8.73
2022-09-27T18:21:31.449Z,8.82
2022-09-27T18:24:32.935Z,9.25
2022-09-27T18:27:34.578Z,7.87
2022-09-27T18:30:36.018Z,5.82
2022-09-27T18:33:37.616Z,5.63
2022-09-27T18:36:41.031Z,5.87
2022-09-27T18:39:42.462Z,4.68
2022-09-27T18:42:43.977Z,5.20
2022-09-27T18:45:45.377Z,4.70
2022-09-27T18:48:46.823Z,4.80
2022-09-27T18:51:49.218Z,4.87
2022-09-27T18:57:53.620Z,4.28
2022-09-27T19:00:58.280Z,4.78
2022-09-27T19:04:00.136Z,8.18
2022-09-27T19:07:01.830Z,4.38
2022-09-27T19:10:05.004Z,3.70
2022-09-27T19:13:06.531Z,4.50
2022-09-27T19:16:08.998Z,5.18
2022-09-27T19:19:10.453Z,3.50
2022-09-27T19:22:11.867Z,3.83
2022-09-27T19:25:13.308Z,5.40
2022-09-27T19:28:14.892Z,5.33
2022-09-27T19:31:18.994Z,6.47
2022-09-27T19:34:20.542Z,6.47
2022-09-27T19:37:21.951Z,4.30
2022-09-27T19:40:23.471Z,9.18
2022-09-27T19:43:24.968Z,11.48
2022-09-27T19:46:26.550Z,9.10
2022-09-27T19:49:28.075Z,14.13
2022-09-27T19:52:29.596Z,13.53
2022-09-27T19:55:30.988Z,8.30
2022-09-27T19:58:34.457Z,5.47
2022-09-27T20:01:35.931Z,4.32
2022-09-27T20:04:38.077Z,4.72
2022-09-27T20:07:39.686Z,4.53
2022-09-27T20:10:41.153Z,5.53
2022-09-27T20:13:43.604Z,8.30
2022-09-27T20:16:45.034Z,4.70
2022-09-27T20:19:46.500Z,4.40
2022-09-27T20:22:47.897Z,5.60
2022-09-27T20:25:49.439Z,3.10
2022-09-27T20:28:53.617Z,3.67
2022-09-27T20:32:22.469Z,4.75
2022-09-27T20:35:17.720Z,4.90
2022-09-27T20:38:19.948Z,4.03
2022-09-27T20:44:24.116Z,4.57
2022-09-27T20:47:25.511Z,5.40
2022-09-27T20:50:27.126Z,4.33
2022-09-27T20:53:28.887Z,4.70
2022-09-27T20:56:36.128Z,6.72
2022-09-27T20:59:37.666Z,4.43
2022-09-27T21:02:39.082Z,6.68
2022-09-27T21:05:40.590Z,7.17
2022-09-27T21:08:42.820Z,6.17
2022-09-27T21:11:48.641Z,5.72
2022-09-27T21:14:50.085Z,7.70
2022-09-27T21:17:52.681Z,10.17
2022-09-27T21:20:58.859Z,12.90
2022-09-27T21:24:01.953Z,9.43
2022-09-27T21:27:04.211Z,7.18
2022-09-27T21:33:07.264Z,5.80
2022-09-27T21:36:11.407Z,7.70
2022-09-27T21:39:15.304Z,6.90
2022-09-27T21:42:16.726Z,9.15
2022-09-27T21:45:18.140Z,8.27
2022-09-27T21:48:19.537Z,4.53
2022-09-27T21:51:27.539Z,5.97
2022-09-27T21:54:28.933Z,5.05
2022-09-27T21:57:30.320Z,6.10
2022-09-27T22:00:31.753Z,7.28
2022-09-27T22:03:42.658Z,5.90
2022-09-27T22:06:44.399Z,3.90
2022-09-27T22:09:45.872Z,5.22
2022-09-27T22:12:47.251Z,7.73
2022-09-27T22:15:50.907Z,5.70
2022-09-27T22:18:55.240Z,5.68
2022-09-27T22:21:56.709Z,4.80
2022-09-27T22:24:58.098Z,5.30
2022-09-27T22:27:59.634Z,5.17
2022-09-27T22:31:04.249Z,5.80
2022-09-27T22:34:07.861Z,4.68
2022-09-27T22:37:09.354Z,6.53
2022-09-27T22:40:10.980Z,5.63
2022-09-27T22:43:12.367Z,6.68
2022-09-27T22:46:14.260Z,7.00
2022-09-27T22:49:15.758Z,7.82
2022-09-27T22:52:17.775Z,4.93
2022-09-27T22:55:19.200Z,5.57
2022-09-27T22:58:20.698Z,10.70
2022-09-27T23:01:24.448Z,4.97
2022-09-27T23:04:25.966Z,4.15
2022-09-27T23:07:27.349Z,5.47
2022-09-27T23:10:29.750Z,4.03
2022-09-27T23:13:32.873Z,4.28
2022-09-27T23:16:35.392Z,4.50
2022-09-27T23:19:37.445Z,3.75
2022-09-27T23:22:38.948Z,6.35
2022-09-27T23:25:40.346Z,5.77
2022-09-27T23:28:41.932Z,5.85
2022-09-27T23:31:43.417Z,8.00
2022-09-27T23:34:44.843Z,6.87
2022-09-27T23:37:46.248Z,5.87
2022-09-27T23:40:48.348Z,9.07
2022-09-27T23:43:50.120Z,10.00
2022-09-27T23:46:54.219Z,11.77
2022-09-27T23:49:56.553Z,7.00
2022-09-27T23:56:07.533Z,7.50
2022-09-27T23:59:09.007Z,5.75
